createdAt,value
2022-08-11T00:01:25.237Z,100.00
2022-08-11T00:04:04.905Z,100.00
2022-08-11T00:06:35.166Z,100.00
2022-08-11T00:09:04.913Z,100.00
2022-08-11T00:11:41.428Z,100.00
2022-08-11T00:14:19.331Z,100.00
2022-08-11T00:17:00.622Z,100.00
2022-08-11T00:20:12.750Z,100.00
2022-08-11T00:22:23.521Z,100.00
2022-08-11T00:24:54.733Z,100.00
2022-08-11T00:27:32.266Z,100.00
2022-08-11T00:29:59.197Z,100.00
2022-08-11T00:32:27.729Z,100.00
2022-08-11T00:35:49.994Z,100.00
2022-08-11T00:37:50.634Z,100.00
2022-08-11T00:40:31.287Z,100.00
2022-08-11T00:43:20.261Z,100.00
2022-08-11T00:46:23.548Z,100.00
2022-08-11T00:49:02.390Z,100.00
2022-08-11T00:52:04.286Z,100.00
2022-08-11T00:54:38.758Z,100.00
2022-08-11T00:57:37.729Z,100.00
2022-08-11T01:00:18.983Z,100.00
2022-08-11T01:03:07.825Z,100.00
2022-08-11T01:05:34.420Z,100.00
2022-08-11T01:08:40.136Z,100.00
2022-08-11T01:11:24.935Z,100.00
2022-08-11T01:14:34.381Z,100.00
2022-08-11T01:17:30.288Z,100.00
2022-08-11T01:20:48.637Z,100.00
2022-08-11T01:23:53.925Z,100.00
2022-08-11T01:26:29.513Z,100.00
2022-08-11T01:29:07.868Z,100.00
2022-08-11T01:32:11.880Z,100.00
2022-08-11T01:35:49.430Z,100.00
2022-08-11T01:38:38.092Z,100.00
2022-08-11T01:41:49.441Z,100.00
2022-08-11T01:44:37.409Z,100.00
2022-08-11T01:47:52.489Z,100.00
2022-08-11T01:50:54.335Z,100.00
2022-08-11T01:53:40.167Z,100.00
2022-08-11T01:56:34.343Z,100.00
2022-08-11T01:59:11.992Z,100.00
2022-08-11T02:01:38.648Z,100.00
2022-08-11T02:04:29.543Z,100.00
2022-08-11T02:07:11.812Z,100.00
2022-08-11T02:09:54.459Z,100.00
2022-08-11T02:12:46.083Z,100.00
2022-08-11T02:15:28.421Z,100.00
2022-08-11T02:18:13.949Z,100.00
2022-08-11T02:21:02.373Z,100.00
2022-08-11T02:24:14.345Z,100.00
2022-08-11T02:27:02.185Z,100.00
2022-08-11T02:29:53.056Z,100.00
2022-08-11T02:32:53.080Z,100.00
2022-08-11T02:35:36.651Z,100.00
2022-08-11T02:38:18.426Z,100.00
2022-08-11T02:40:49.432Z,100.00
2022-08-11T02:43:37.751Z,100.00
2022-08-11T02:46:27.396Z,100.00
2022-08-11T02:49:23.497Z,100.00
2022-08-11T02:52:08.584Z,100.00
2022-08-11T02:54:56.317Z,100.00
2022-08-11T02:57:37.594Z,100.00
2022-08-11T03:00:11.924Z,100.00
2022-08-11T03:02:51.690Z,100.00
2022-08-11T03:05:24.457Z,100.00
2022-08-11T03:08:07.359Z,100.00
2022-08-11T03:11:19.883Z,100.00
2022-08-11T03:14:15.586Z,100.00
2022-08-11T03:16:55.655Z,100.00
2022-08-11T03:19:41.868Z,100.00
2022-08-11T03:22:19.322Z,100.00
2022-08-11T03:24:46.397Z,100.00
2022-08-11T03:27:41.623Z,100.00
2022-08-11T03:30:34.889Z,100.00
2022-08-11T03:33:43.912Z,100.00
2022-08-11T03:36:33.314Z,100.00
2022-08-11T03:39:51.122Z,100.00
2022-08-11T03:42:46.267Z,100.00
2022-08-11T03:45:31.176Z,100.00
2022-08-11T03:48:07.033Z,100.00
2022-08-11T03:51:01.607Z,100.00
2022-08-11T03:53:45.850Z,100.00
2022-08-11T03:56:30.845Z,100.00
2022-08-11T03:59:21.759Z,100.00
2022-08-11T04:02:02.332Z,100.00
2022-08-11T04:04:29.356Z,100.00
2022-08-11T04:07:32.443Z,100.00
2022-08-11T04:09:59.070Z,100.00
2022-08-11T04:12:48.694Z,100.00
2022-08-11T04:16:11.363Z,100.00
2022-08-11T04:19:00.728Z,100.00
2022-08-11T04:21:49.020Z,100.00
2022-08-11T04:24:36.171Z,100.00
2022-08-11T04:27:44.782Z,100.00
2022-08-11T04:30:28.240Z,100.00
2022-08-11T04:32:59.755Z,100.00
2022-08-11T04:36:02.350Z,100.00
2022-08-11T04:38:44.809Z,100.00
2022-08-11T04:41:33.427Z,100.00
2022-08-11T04:44:06.967Z,100.00
2022-08-11T04:47:10.396Z,100.00
2022-08-11T04:50:22.075Z,100.00
2022-08-11T04:53:10.400Z,100.00
2022-08-11T04:56:11.029Z,100.00
2022-08-11T04:59:13.860Z,100.00
2022-08-11T05:01:59.317Z,100.00
2022-08-11T05:04:56.569Z,100.00
2022-08-11T05:07:26.404Z,100.00
2022-08-11T05:10:19.994Z,100.00
2022-08-11T05:12:51.928Z,100.00
2022-08-11T05:15:52.956Z,100.00
2022-08-11T05:18:42.735Z,100.00
2022-08-11T05:21:30.596Z,100.00
2022-08-11T05:24:40.894Z,100.00
2022-08-11T05:27:33.336Z,100.00
2022-08-11T05:30:25.202Z,100.00
2022-08-11T05:33:22.675Z,100.00
2022-08-11T05:36:01.424Z,100.00
2022-08-11T05:38:54.541Z,100.00
2022-08-11T05:41:45.812Z,100.00
2022-08-11T05:44:37.543Z,100.00
2022-08-11T05:47:23.319Z,100.00
2022-08-11T05:50:13.735Z,100.00
2022-08-11T05:53:04.813Z,100.00
2022-08-11T05:56:02.545Z,100.00
2022-08-11T05:58:42.540Z,100.00
2022-08-11T06:01:12.304Z,100.00
2022-08-11T06:04:02.166Z,100.00
2022-08-11T06:06:30.248Z,100.00
2022-08-11T06:08:58.762Z,100.00
2022-08-11T06:11:43.279Z,100.00
2022-08-11T06:14:12.701Z,100.00
2022-08-11T06:16:41.460Z,100.00
2022-08-11T06:19:09.240Z,100.00
2022-08-11T06:21:36.616Z,100.00
2022-08-11T06:24:14.065Z,100.00
2022-08-11T06:27:09.185Z,100.00
2022-08-11T06:29:46.833Z,100.00
2022-08-11T06:32:16.439Z,100.00
2022-08-11T06:35:09.804Z,100.00
2022-08-11T06:37:45.288Z,100.00
2022-08-11T06:40:25.689Z,100.00
2022-08-11T06:43:21.788Z,100.00
2022-08-11T06:45:51.445Z,100.00
2022-08-11T06:48:21.856Z,100.00
2022-08-11T06:51:14.033Z,100.00
2022-08-11T06:54:03.566Z,100.00
2022-08-11T06:57:12.437Z,100.00
2022-08-11T06:59:59.897Z,100.00
2022-08-11T07:02:37.729Z,100.00
2022-08-11T07:05:16.794Z,100.00
2022-08-11T07:08:41.496Z,100.00
2022-08-11T07:12:16.381Z,100.00
2022-08-11T07:15:09.285Z,100.00
2022-08-11T07:17:49.694Z,100.00
2022-08-11T07:21:01.769Z,100.00
2022-08-11T07:23:50.513Z,100.00
2022-08-11T07:26:43.024Z,100.00
2022-08-11T07:29:14.546Z,100.00
2022-08-11T07:31:46.321Z,100.00
2022-08-11T07:34:36.729Z,100.00
2022-08-11T07:37:17.755Z,100.00
2022-08-11T07:39:46.539Z,100.00
2022-08-11T07:42:27.834Z,100.00
2022-08-11T07:45:15.204Z,100.00
2022-08-11T07:48:02.022Z,100.00
2022-08-11T07:50:51.774Z,100.00
2022-08-11T07:53:22.067Z,100.00
2022-08-11T07:55:51.570Z,100.00
2022-08-11T07:58:45.261Z,100.00
2022-08-11T08:01:43.270Z,100.00
2022-08-11T08:04:30.231Z,100.00
2022-08-11T08:07:17.021Z,100.00
2022-08-11T08:10:03.364Z,100.00
2022-08-11T08:12:50.129Z,100.00
2022-08-11T08:15:36.288Z,100.00
2022-08-11T08:18:08.351Z,100.00
2022-08-11T08:20:40.292Z,100.00
2022-08-11T08:23:08.345Z,100.00
2022-08-11T08:25:38.057Z,100.00
2022-08-11T08:28:10.076Z,100.00
2022-08-11T08:30:54.707Z,100.00
2022-08-11T08:33:23.192Z,100.00
2022-08-11T08:36:11.210Z,100.00
2022-08-11T08:38:47.287Z,100.00
2022-08-11T08:41:17.404Z,100.00
2022-08-11T08:43:49.583Z,100.00
2022-08-11T08:46:19.573Z,100.00
2022-08-11T08:48:48.075Z,100.00
2022-08-11T08:52:00.836Z,100.00
2022-08-11T08:54:25.383Z,100.00
2022-08-11T08:56:56.064Z,100.00
2022-08-11T08:59:25.919Z,100.00
2022-08-11T09:02:00.716Z,100.00
2022-08-11T09:04:29.406Z,100.00
2022-08-11T09:07:06.670Z,100.00
2022-08-11T09:09:33.956Z,100.00
2022-08-11T09:12:05.337Z,100.00
2022-08-11T09:14:56.447Z,100.00
2022-08-11T09:17:23.700Z,100.00
2022-08-11T09:20:01.920Z,100.00
2022-08-11T09:23:10.549Z,100.00
2022-08-11T09:25:58.121Z,100.00
2022-08-11T09:28:31.695Z,100.00
2022-08-11T09:31:01.468Z,100.00
2022-08-11T09:33:30.572Z,100.00
2022-08-11T09:35:58.217Z,100.00
2022-08-11T09:38:49.397Z,100.00
2022-08-11T09:41:17.043Z,100.00
2022-08-11T09:44:04.527Z,100.00
2022-08-11T09:46:33.115Z,100.00
2022-08-11T09:49:02.341Z,100.00
2022-08-11T09:51:32.270Z,100.00
2022-08-11T09:54:06.555Z,100.00
2022-08-11T09:56:52.440Z,100.00
2022-08-11T09:59:22.163Z,100.00
2022-08-11T10:01:55.096Z,100.00
2022-08-11T10:04:35.611Z,100.00
2022-08-11T10:07:10.381Z,100.00
2022-08-11T10:09:51.708Z,100.00
2022-08-11T10:12:30.289Z,100.00
2022-08-11T10:15:22.402Z,100.00
2022-08-11T10:18:20.081Z,100.00
2022-08-11T10:20:51.805Z,100.00
2022-08-11T10:24:00.640Z,100.00
2022-08-11T10:26:48.521Z,100.00
2022-08-11T10:29:37.570Z,100.00
2022-08-11T10:32:31.933Z,100.00
2022-08-11T10:35:02.065Z,100.00
2022-08-11T10:38:08.689Z,100.00
2022-08-11T10:40:23.638Z,100.00
2022-08-11T10:43:06.794Z,100.00
2022-08-11T10:45:55.259Z,100.00
2022-08-11T10:48:30.327Z,100.00
2022-08-11T10:51:50.544Z,100.00
2022-08-11T10:54:24.244Z,100.00
2022-08-11T10:57:12.779Z,100.00
2022-08-11T10:59:42.705Z,100.00
2022-08-11T11:02:15.133Z,100.00
2022-08-11T11:05:09.280Z,100.00
2022-08-11T11:07:50.264Z,100.00
2022-08-11T11:10:17.083Z,100.00
2022-08-11T11:13:04.743Z,100.00
2022-08-11T11:15:54.632Z,100.00
2022-08-11T11:18:35.720Z,100.00
2022-08-11T11:21:08.544Z,100.00
2022-08-11T11:23:53.934Z,100.00
2022-08-11T11:26:38.625Z,100.00
2022-08-11T11:29:26.797Z,100.00
2022-08-11T11:32:16.485Z,100.00
2022-08-11T11:34:54.181Z,100.00
2022-08-11T11:37:23.770Z,100.00
2022-08-11T11:39:53.213Z,100.00
2022-08-11T11:42:21.641Z,100.00
2022-08-11T11:44:48.975Z,100.00
2022-08-11T11:47:21.829Z,100.00
2022-08-11T11:49:49.779Z,100.00
2022-08-11T11:52:19.632Z,100.00
2022-08-11T11:54:51.337Z,100.00
2022-08-11T11:57:38.499Z,100.00
2022-08-11T12:00:33.539Z,100.00
2022-08-11T12:03:09.628Z,100.00
2022-08-11T12:05:38.153Z,100.00
2022-08-11T12:08:16.271Z,100.00
2022-08-11T12:11:13.423Z,100.00
2022-08-11T12:13:42.193Z,100.00
2022-08-11T12:16:35.069Z,100.00
2022-08-11T12:19:03.927Z,100.00
2022-08-11T12:21:31.320Z,100.00
2022-08-11T12:24:19.603Z,100.00
2022-08-11T12:27:02.813Z,100.00
2022-08-11T12:29:41.353Z,100.00
2022-08-11T12:32:11.118Z,100.00
2022-08-11T12:34:37.961Z,100.00
2022-08-11T12:37:10.920Z,100.00
2022-08-11T12:40:16.812Z,100.00
2022-08-11T12:43:21.902Z,100.00
2022-08-11T12:45:58.369Z,100.00
2022-08-11T12:49:00.532Z,100.00
2022-08-11T12:52:11.621Z,100.00
2022-08-11T12:54:57.191Z,100.00
2022-08-11T12:57:50.263Z,100.00
2022-08-11T13:00:36.841Z,100.00
2022-08-11T13:03:25.908Z,100.00
2022-08-11T13:05:59.527Z,100.00
2022-08-11T13:08:29.271Z,100.00
2022-08-11T13:11:16.707Z,100.00
2022-08-11T13:13:52.906Z,100.00
2022-08-11T13:16:32.183Z,100.00
2022-08-11T13:19:01.021Z,100.00
2022-08-11T13:21:28.600Z,100.00
2022-08-11T13:24:00.462Z,100.00
2022-08-11T13:26:43.395Z,100.00
2022-08-11T13:29:20.709Z,100.00
2022-08-11T13:31:48.396Z,100.00
2022-08-11T13:34:17.121Z,100.00
2022-08-11T13:36:45.782Z,100.00
2022-08-11T13:39:13.536Z,100.00
2022-08-11T13:41:45.028Z,100.00
2022-08-11T13:44:15.825Z,100.00
2022-08-11T13:46:45.805Z,100.00
2022-08-11T13:49:16.675Z,100.00
2022-08-11T13:51:44.162Z,100.00
2022-08-11T13:54:22.564Z,100.00
2022-08-11T13:56:54.093Z,100.00
2022-08-11T13:59:30.039Z,100.00
2022-08-11T14:02:22.052Z,100.00
2022-08-11T14:04:56.234Z,100.00
2022-08-11T14:07:25.755Z,100.00
2022-08-11T14:10:01.947Z,100.00
2022-08-11T14:12:52.267Z,100.00
2022-08-11T14:15:32.919Z,100.00
2022-08-11T14:18:06.467Z,100.00
2022-08-11T14:20:54.248Z,100.00
2022-08-11T14:23:31.328Z,84.56
2022-08-11T14:26:18.477Z,60.79
2022-08-11T14:28:46.012Z,56.94
2022-08-11T14:31:15.501Z,59.32
2022-08-11T14:34:00.913Z,58.15
2022-08-11T14:36:59.045Z,58.13
2022-08-11T14:39:28.399Z,55.08
2022-08-11T14:42:20.811Z,56.08
2022-08-11T14:45:02.728Z,57.34
2022-08-11T14:47:37.582Z,57.34
2022-08-11T14:50:11.508Z,56.86
2022-08-11T14:53:01.708Z,55.51
2022-08-11T14:55:48.835Z,55.43
2022-08-11T14:58:21.748Z,57.16
2022-08-11T15:00:53.354Z,54.26
2022-08-11T15:03:26.242Z,57.20
2022-08-11T15:05:58.544Z,58.06
2022-08-11T15:08:48.159Z,58.58
2022-08-11T15:11:36.799Z,59.53
2022-08-11T15:14:06.458Z,56.65
2022-08-11T15:16:52.385Z,56.26
2022-08-11T15:19:21.279Z,56.62
2022-08-11T15:22:08.035Z,59.81
2022-08-11T15:24:36.457Z,56.49
2022-08-11T15:27:31.512Z,57.00
2022-08-11T15:30:32.632Z,57.19
2022-08-11T15:33:23.250Z,60.21
2022-08-11T15:36:10.943Z,62.70
2022-08-11T15:38:44.461Z,64.36
2022-08-11T15:41:35.880Z,65.98
2022-08-11T15:44:44.443Z,64.06
2022-08-11T15:47:14.280Z,66.35
2022-08-11T15:50:10.397Z,69.38
2022-08-11T15:52:37.847Z,69.50
2022-08-11T15:55:08.880Z,72.12
2022-08-11T15:57:55.697Z,70.47
2022-08-11T16:00:41.362Z,73.11
2022-08-11T16:03:54.487Z,71.32
2022-08-11T16:06:15.932Z,68.54
2022-08-11T16:08:45.672Z,71.25
2022-08-11T16:11:13.829Z,70.49
2022-08-11T16:13:40.912Z,72.84
2022-08-11T16:16:15.351Z,70.33
2022-08-11T16:18:53.815Z,74.71
2022-08-11T16:21:33.753Z,72.79
2022-08-11T16:24:06.004Z,74.15
2022-08-11T16:27:11.733Z,71.58
2022-08-11T16:29:25.001Z,72.55
2022-08-11T16:32:11.556Z,70.02
2022-08-11T16:34:58.464Z,71.51
2022-08-11T16:37:44.235Z,71.13
2022-08-11T16:40:12.059Z,70.37
2022-08-11T16:43:04.604Z,72.48
2022-08-11T16:45:59.385Z,71.15
2022-08-11T16:48:36.453Z,71.92
2022-08-11T16:51:07.013Z,71.24
2022-08-11T16:53:54.675Z,70.01
2022-08-11T16:56:30.084Z,73.45
2022-08-11T16:59:17.029Z,77.28
2022-08-11T17:02:04.915Z,79.65
2022-08-11T17:05:00.159Z,83.14
2022-08-11T17:07:47.526Z,88.68
2022-08-11T17:11:01.570Z,96.21
2022-08-11T17:13:42.340Z,100.00
2022-08-11T17:16:13.608Z,100.00
2022-08-11T17:18:43.487Z,100.00
2022-08-11T17:21:23.795Z,100.00
2022-08-11T17:23:55.279Z,100.00
2022-08-11T17:26:27.439Z,100.00
2022-08-11T17:28:59.284Z,100.00
2022-08-11T17:31:45.709Z,100.00
2022-08-11T17:34:32.616Z,100.00
2022-08-11T17:37:00.187Z,100.00
2022-08-11T17:39:31.064Z,100.00
2022-08-11T17:42:18.237Z,100.00
2022-08-11T17:45:04.047Z,100.00
2022-08-11T17:47:51.349Z,100.00
2022-08-11T17:50:18.900Z,100.00
2022-08-11T17:53:06.171Z,100.00
2022-08-11T17:55:53.786Z,100.00
2022-08-11T17:58:41.670Z,100.00
2022-08-11T18:01:11.121Z,100.00
2022-08-11T18:03:40.556Z,100.00
2022-08-11T18:06:12.851Z,100.00
2022-08-11T18:09:02.472Z,100.00
2022-08-11T18:12:11.473Z,100.00
2022-08-11T18:14:57.601Z,100.00
2022-08-11T18:17:42.986Z,100.00
2022-08-11T18:20:28.887Z,100.00
2022-08-11T18:23:14.916Z,100.00
2022-08-11T18:26:06.400Z,100.00
2022-08-11T18:29:05.922Z,100.00
2022-08-11T18:31:54.188Z,100.00
2022-08-11T18:34:49.060Z,100.00
2022-08-11T18:37:45.620Z,100.00
2022-08-11T18:40:37.928Z,100.00
2022-08-11T18:43:28.347Z,100.00
2022-08-11T18:46:20.185Z,100.00
2022-08-11T18:49:15.374Z,100.00
2022-08-11T18:52:06.575Z,100.00
2022-08-11T18:54:55.456Z,100.00
2022-08-11T18:57:50.128Z,100.00
2022-08-11T19:00:41.927Z,100.00
2022-08-11T19:03:30.754Z,100.00
2022-08-11T19:06:38.157Z,100.00
2022-08-11T19:09:30.592Z,100.00
2022-08-11T19:12:17.952Z,100.00
2022-08-11T19:15:04.525Z,100.00
2022-08-11T19:17:53.911Z,100.00
2022-08-11T19:20:44.392Z,100.00
2022-08-11T19:23:33.883Z,100.00
2022-08-11T19:26:21.356Z,100.00
2022-08-11T19:29:08.148Z,100.00
2022-08-11T19:31:55.926Z,100.00
2022-08-11T19:34:43.623Z,100.00
2022-08-11T19:37:29.555Z,100.00
2022-08-11T19:40:27.175Z,100.00
2022-08-11T19:43:23.832Z,100.00
2022-08-11T19:46:15.963Z,100.00
2022-08-11T19:49:05.002Z,100.00
2022-08-11T19:51:54.256Z,100.00
2022-08-11T19:54:44.344Z,100.00
2022-08-11T19:57:34.674Z,100.00
2022-08-11T20:00:30.059Z,100.00
2022-08-11T20:03:17.462Z,100.00
2022-08-11T20:06:04.720Z,100.00
2022-08-11T20:08:55.126Z,100.00
2022-08-11T20:11:48.435Z,100.00
2022-08-11T20:14:36.204Z,100.00
2022-08-11T20:17:21.891Z,100.00
2022-08-11T20:20:09.144Z,100.00
2022-08-11T20:22:54.340Z,100.00
2022-08-11T20:25:43.000Z,100.00
2022-08-11T20:28:31.935Z,100.00
2022-08-11T20:31:17.256Z,100.00
2022-08-11T20:34:03.672Z,100.00
2022-08-11T20:36:54.936Z,100.00
2022-08-11T20:39:42.516Z,100.00
2022-08-11T20:42:30.689Z,100.00
2022-08-11T20:45:23.634Z,100.00
2022-08-11T20:48:15.320Z,100.00
2022-08-11T20:51:06.195Z,100.00
2022-08-11T20:53:56.833Z,100.00
2022-08-11T20:56:45.676Z,100.00
2022-08-11T20:59:33.362Z,100.00
2022-08-11T21:02:35.741Z,100.00
2022-08-11T21:06:08.198Z,100.00
2022-08-11T21:08:29.472Z,100.00
2022-08-11T21:11:15.150Z,100.00
2022-08-11T21:14:14.452Z,100.00
2022-08-11T21:17:04.523Z,100.00
2022-08-11T21:20:17.074Z,100.00
2022-08-11T21:23:32.785Z,100.00
2022-08-11T21:26:26.139Z,100.00
2022-08-11T21:29:18.392Z,100.00
2022-08-11T21:32:05.071Z,100.00
2022-08-11T21:34:52.367Z,100.00
2022-08-11T21:37:39.037Z,100.00
2022-08-11T21:40:28.693Z,100.00
2022-08-11T21:43:17.443Z,100.00
2022-08-11T21:46:04.193Z,100.00
2022-08-11T21:48:50.249Z,100.00
2022-08-11T21:51:35.463Z,100.00
2022-08-11T21:54:21.886Z,100.00
2022-08-11T21:57:07.824Z,100.00
2022-08-11T22:00:03.115Z,100.00
2022-08-11T22:02:53.470Z,100.00
2022-08-11T22:05:39.671Z,100.00
2022-08-11T22:08:26.611Z,100.00
2022-08-11T22:11:12.885Z,100.00
2022-08-11T22:14:06.001Z,100.00
2022-08-11T22:16:54.089Z,100.00
2022-08-11T22:19:40.507Z,100.00
2022-08-11T22:22:26.764Z,100.00
2022-08-11T22:25:16.492Z,100.00
2022-08-11T22:28:03.925Z,100.00
2022-08-11T22:30:49.240Z,100.00
2022-08-11T22:33:35.500Z,100.00
2022-08-11T22:36:23.952Z,100.00
2022-08-11T22:39:09.974Z,100.00
2022-08-11T22:41:55.105Z,100.00
2022-08-11T22:44:40.293Z,100.00
2022-08-11T22:47:38.466Z,100.00
2022-08-11T22:50:27.086Z,100.00
2022-08-11T22:53:13.895Z,100.00
2022-08-11T22:55:59.827Z,100.00
2022-08-11T22:58:46.058Z,100.00
2022-08-11T23:01:35.696Z,100.00
2022-08-11T23:04:21.370Z,100.00
2022-08-11T23:07:08.637Z,100.00
2022-08-11T23:09:54.522Z,100.00
2022-08-11T23:12:40.065Z,100.00
2022-08-11T23:15:26.429Z,100.00
2022-08-11T23:18:11.984Z,100.00
2022-08-11T23:20:59.062Z,100.00
2022-08-11T23:23:47.521Z,100.00
2022-08-11T23:26:37.089Z,100.00
2022-08-11T23:29:23.164Z,100.00
2022-08-11T23:32:11.369Z,100.00
2022-08-11T23:35:38.090Z,100.00
2022-08-11T23:38:08.201Z,100.00
2022-08-11T23:40:53.353Z,100.00
2022-08-11T23:43:43.136Z,100.00
2022-08-11T23:46:29.186Z,100.00
2022-08-11T23:49:17.484Z,100.00
2022-08-11T23:52:03.843Z,100.00
2022-08-11T23:54:49.543Z,100.00
2022-08-11T23:57:35.025Z,100.00
